createdAt,value
2023-03-05T00:01:35.230Z,4.97
2023-03-05T00:04:03.672Z,5.03
2023-03-05T00:06:31.022Z,4.93
2023-03-05T00:08:58.318Z,4.57
2023-03-05T00:11:27.991Z,3.93
2023-03-05T00:13:54.983Z,4.73
2023-03-05T00:16:22.427Z,5.30
2023-03-05T00:18:49.684Z,4.10
2023-03-05T00:21:22.347Z,4.33
2023-03-05T00:23:50.589Z,4.57
2023-03-05T00:26:18.980Z,4.77
2023-03-05T00:28:49.758Z,4.00
2023-03-05T00:31:17.822Z,4.17
2023-03-05T00:33:44.258Z,4.17
2023-03-05T00:36:11.022Z,3.90
2023-03-05T00:38:37.502Z,4.53
2023-03-05T00:41:04.147Z,4.27
2023-03-05T00:43:30.666Z,4.60
2023-03-05T00:45:57.023Z,3.80
2023-03-05T00:48:23.362Z,4.00
2023-03-05T00:50:49.746Z,4.33
2023-03-05T00:53:16.227Z,4.40
2023-03-05T00:55:42.564Z,4.70
2023-03-05T00:58:09.007Z,4.13
2023-03-05T01:00:35.472Z,3.80
2023-03-05T01:03:02.127Z,4.27
2023-03-05T01:05:28.712Z,4.10
2023-03-05T01:07:56.216Z,4.17
2023-03-05T01:10:26.480Z,4.90
2023-03-05T01:12:54.387Z,4.13
2023-03-05T01:15:21.431Z,3.53
2023-03-05T01:17:47.961Z,4.00
2023-03-05T01:20:16.504Z,4.27
2023-03-05T01:22:42.848Z,3.90
2023-03-05T01:25:09.947Z,4.20
2023-03-05T01:27:36.555Z,4.70
2023-03-05T01:30:03.407Z,4.07
2023-03-05T01:32:30.037Z,4.00
2023-03-05T01:34:56.421Z,3.43
2023-03-05T01:37:22.866Z,3.63
2023-03-05T01:39:49.217Z,3.50
2023-03-05T01:42:15.551Z,3.30
2023-03-05T01:45:00.530Z,4.07
2023-03-05T01:47:26.980Z,2.77
2023-03-05T01:49:54.343Z,3.27
2023-03-05T01:52:23.632Z,3.50
2023-03-05T01:54:54.472Z,3.33
2023-03-05T01:57:25.701Z,3.13
2023-03-05T01:59:56.576Z,3.70
2023-03-05T02:02:23.246Z,3.20
2023-03-05T02:04:54.693Z,3.03
2023-03-05T02:07:22.288Z,4.00
2023-03-05T02:09:48.819Z,2.97
2023-03-05T02:12:15.628Z,3.70
2023-03-05T02:14:46.557Z,3.67
2023-03-05T02:17:13.487Z,3.53
2023-03-05T02:20:17.229Z,2.80
2023-03-05T02:22:43.650Z,2.97
2023-03-05T02:25:15.550Z,2.90
2023-03-05T02:27:51.428Z,3.37
2023-03-05T02:30:18.228Z,3.70
2023-03-05T02:32:44.583Z,3.13
2023-03-05T02:35:11.193Z,3.60
2023-03-05T02:37:37.574Z,3.70
2023-03-05T02:40:05.834Z,3.33
2023-03-05T02:42:33.512Z,4.03
2023-03-05T02:45:01.802Z,3.77
2023-03-05T02:47:28.627Z,3.83
2023-03-05T02:49:56.279Z,3.77
2023-03-05T02:52:25.769Z,4.17
2023-03-05T02:54:52.863Z,4.10
2023-03-05T02:57:19.511Z,4.87
2023-03-05T02:59:46.997Z,5.50
2023-03-05T03:02:13.508Z,4.47
2023-03-05T03:04:39.929Z,4.60
2023-03-05T03:07:06.397Z,4.93
2023-03-05T03:09:35.222Z,5.20
2023-03-05T03:12:02.572Z,4.90
2023-03-05T03:14:38.938Z,4.53
2023-03-05T03:17:11.582Z,4.37
2023-03-05T03:19:39.200Z,4.97
2023-03-05T03:22:06.348Z,5.03
2023-03-05T03:24:33.839Z,5.27
2023-03-05T03:27:01.225Z,4.67
2023-03-05T03:29:28.078Z,5.00
2023-03-05T03:31:54.428Z,5.03
2023-03-05T03:34:21.358Z,4.80
2023-03-05T03:36:49.676Z,5.43
2023-03-05T03:39:16.781Z,5.83
2023-03-05T03:41:45.618Z,6.17
2023-03-05T03:44:13.045Z,5.73
2023-03-05T03:46:40.501Z,6.00
2023-03-05T03:49:10.672Z,5.47
2023-03-05T03:51:36.984Z,6.60
2023-03-05T03:54:03.423Z,6.20
2023-03-05T03:56:29.750Z,6.27
2023-03-05T03:58:56.063Z,5.53
2023-03-05T04:01:22.523Z,6.10
2023-03-05T04:03:49.004Z,6.50
2023-03-05T04:06:15.628Z,5.70
2023-03-05T04:08:41.988Z,5.83
2023-03-05T04:11:08.780Z,5.70
2023-03-05T04:13:35.189Z,5.10
2023-03-05T04:16:01.659Z,6.57
2023-03-05T04:18:28.232Z,6.17
2023-03-05T04:20:54.546Z,6.57
2023-03-05T04:23:21.124Z,6.37
2023-03-05T04:25:47.429Z,6.30
2023-03-05T04:28:13.821Z,6.63
2023-03-05T04:30:40.157Z,6.93
2023-03-05T04:33:06.633Z,5.50
2023-03-05T04:35:32.987Z,5.50
2023-03-05T04:37:59.358Z,4.80
2023-03-05T04:40:25.739Z,4.23
2023-03-05T04:42:52.053Z,3.80
2023-03-05T04:45:18.445Z,4.10
2023-03-05T04:47:44.852Z,3.83
2023-03-05T04:50:12.153Z,3.83
2023-03-05T04:52:44.304Z,3.80
2023-03-05T04:55:13.747Z,2.53
2023-03-05T04:57:40.143Z,3.80
2023-03-05T05:00:13.982Z,3.27
2023-03-05T05:02:48.236Z,3.60
2023-03-05T05:05:24.344Z,3.70
2023-03-05T05:07:55.170Z,4.20
2023-03-05T05:10:21.569Z,4.27
2023-03-05T05:12:48.012Z,4.07
2023-03-05T05:15:14.354Z,4.53
2023-03-05T05:17:40.791Z,4.17
2023-03-05T05:20:08.117Z,4.73
2023-03-05T05:22:35.091Z,4.97
2023-03-05T05:25:01.575Z,4.90
2023-03-05T05:27:27.977Z,4.87
2023-03-05T05:29:54.379Z,5.47
2023-03-05T05:32:24.017Z,5.13
2023-03-05T05:34:58.273Z,5.00
2023-03-05T05:37:26.004Z,4.80
2023-03-05T05:39:52.400Z,5.47
2023-03-05T05:42:21.168Z,5.27
2023-03-05T05:44:47.646Z,5.10
2023-03-05T05:47:16.048Z,4.93
2023-03-05T05:49:42.433Z,5.47
2023-03-05T05:52:08.846Z,5.53
2023-03-05T05:54:35.238Z,4.77
2023-03-05T05:57:01.654Z,5.47
2023-03-05T05:59:28.016Z,5.33
2023-03-05T06:01:54.395Z,5.57
2023-03-05T06:04:20.847Z,5.43
2023-03-05T06:06:47.160Z,4.40
2023-03-05T06:09:13.517Z,5.23
2023-03-05T06:11:39.998Z,5.27
2023-03-05T06:14:07.547Z,5.13
2023-03-05T06:16:34.837Z,5.10
2023-03-05T06:19:04.446Z,5.43
2023-03-05T06:21:33.253Z,6.13
2023-03-05T06:24:00.060Z,5.40
2023-03-05T06:26:26.519Z,6.07
2023-03-05T06:28:53.717Z,6.53
2023-03-05T06:31:22.797Z,5.27
2023-03-05T06:33:50.318Z,5.47
2023-03-05T06:36:19.174Z,6.00
2023-03-05T06:38:47.364Z,5.43
2023-03-05T06:41:17.759Z,5.23
2023-03-05T06:43:45.667Z,5.63
2023-03-05T06:46:18.488Z,5.30
2023-03-05T06:48:45.819Z,5.47
2023-03-05T06:51:14.075Z,5.50
2023-03-05T06:53:40.898Z,6.30
2023-03-05T06:56:07.260Z,6.20
2023-03-05T06:58:33.796Z,7.37
2023-03-05T07:01:00.247Z,6.87
2023-03-05T07:03:26.878Z,5.87
2023-03-05T07:05:53.246Z,6.73
2023-03-05T07:08:19.579Z,6.73
2023-03-05T07:10:45.910Z,6.60
2023-03-05T07:13:12.272Z,7.13
2023-03-05T07:15:40.365Z,6.90
2023-03-05T07:18:07.367Z,7.13
2023-03-05T07:20:35.610Z,7.23
2023-03-05T07:23:02.664Z,6.77
2023-03-05T07:25:29.142Z,6.90
2023-03-05T07:27:56.036Z,7.30
2023-03-05T07:30:22.435Z,7.97
2023-03-05T07:32:48.780Z,7.07
2023-03-05T07:35:15.218Z,6.93
2023-03-05T07:37:41.551Z,7.60
2023-03-05T07:40:09.039Z,7.43
2023-03-05T07:42:35.454Z,7.10
2023-03-05T07:45:13.021Z,7.23
2023-03-05T07:47:39.364Z,6.70
2023-03-05T07:50:06.368Z,6.90
2023-03-05T07:52:32.736Z,5.90
2023-03-05T07:54:59.107Z,6.27
2023-03-05T07:57:25.434Z,5.73
2023-03-05T07:59:51.828Z,5.80
2023-03-05T08:02:19.670Z,5.97
2023-03-05T08:04:46.064Z,6.47
2023-03-05T08:07:14.949Z,8.83
2023-03-05T08:09:42.730Z,9.30
2023-03-05T08:12:10.269Z,11.77
2023-03-05T08:14:37.530Z,12.63
2023-03-05T08:17:05.565Z,11.73
2023-03-05T08:19:33.082Z,13.87
2023-03-05T08:21:59.846Z,13.93
2023-03-05T08:24:29.491Z,11.10
2023-03-05T08:26:57.426Z,10.37
2023-03-05T08:29:24.719Z,8.97
2023-03-05T08:31:53.407Z,8.63
2023-03-05T08:34:20.814Z,8.30
2023-03-05T08:36:47.839Z,9.30
2023-03-05T08:39:14.610Z,9.50
2023-03-05T08:41:41.160Z,10.97
2023-03-05T08:44:07.573Z,8.73
2023-03-05T08:46:34.566Z,8.97
2023-03-05T08:49:01.182Z,10.83
2023-03-05T08:51:27.645Z,10.20
2023-03-05T08:53:55.868Z,10.43
2023-03-05T08:56:22.203Z,9.47
2023-03-05T08:58:48.616Z,9.83
2023-03-05T09:01:15.183Z,9.80
2023-03-05T09:03:41.679Z,10.13
2023-03-05T09:06:10.726Z,10.27
2023-03-05T09:08:37.101Z,10.73
2023-03-05T09:11:07.661Z,10.03
2023-03-05T09:13:34.703Z,10.40
2023-03-05T09:16:04.424Z,11.70
2023-03-05T09:18:32.036Z,11.53
2023-03-05T09:20:58.908Z,11.33
2023-03-05T09:23:25.257Z,10.73
2023-03-05T09:25:51.695Z,9.93
2023-03-05T09:28:18.177Z,11.27
2023-03-05T09:30:44.513Z,12.03
2023-03-05T09:33:11.120Z,11.47
2023-03-05T09:35:37.514Z,11.37
2023-03-05T09:38:04.590Z,13.80
2023-03-05T09:40:41.817Z,13.07
2023-03-05T09:43:22.366Z,13.93
2023-03-05T09:46:18.533Z,13.83
2023-03-05T09:48:52.070Z,14.80
2023-03-05T09:51:25.778Z,14.77
2023-03-05T09:54:17.226Z,13.30
2023-03-05T09:57:00.122Z,11.97
2023-03-05T09:59:38.876Z,11.80
2023-03-05T10:02:20.553Z,13.03
2023-03-05T10:04:57.634Z,13.20
2023-03-05T10:07:31.219Z,12.37
2023-03-05T10:10:01.019Z,12.07
2023-03-05T10:12:42.038Z,11.03
2023-03-05T10:15:13.804Z,9.40
2023-03-05T10:17:57.296Z,8.73
2023-03-05T10:20:35.659Z,8.50
2023-03-05T10:23:08.004Z,10.83
2023-03-05T10:25:52.133Z,11.07
2023-03-05T10:28:35.252Z,12.97
2023-03-05T10:31:15.103Z,10.53
2023-03-05T10:34:11.819Z,10.77
2023-03-05T10:37:16.196Z,12.57
2023-03-05T10:40:07.880Z,12.00
2023-03-05T10:42:45.163Z,11.73
2023-03-05T10:45:20.230Z,11.27
2023-03-05T10:47:52.353Z,10.73
2023-03-05T10:50:27.847Z,9.67
2023-03-05T10:53:29.580Z,9.47
2023-03-05T10:55:56.478Z,10.20
2023-03-05T10:58:25.077Z,8.53
2023-03-05T11:01:01.568Z,9.80
2023-03-05T11:03:52.121Z,8.40
2023-03-05T11:06:38.938Z,8.23
2023-03-05T11:09:18.979Z,8.27
2023-03-05T11:12:01.450Z,6.93
2023-03-05T11:14:33.320Z,7.97
2023-03-05T11:17:01.755Z,7.20
2023-03-05T11:19:35.202Z,9.40
2023-03-05T11:22:17.220Z,9.47
2023-03-05T11:24:46.550Z,8.53
2023-03-05T11:27:43.959Z,6.97
2023-03-05T11:30:37.139Z,6.40
2023-03-05T11:33:12.971Z,7.00
2023-03-05T11:35:41.906Z,6.43
2023-03-05T11:38:21.652Z,6.47
2023-03-05T11:40:49.183Z,6.03
2023-03-05T11:43:21.199Z,6.20
2023-03-05T11:45:51.916Z,5.80
2023-03-05T11:48:35.985Z,5.03
2023-03-05T11:51:16.235Z,5.27
2023-03-05T11:53:45.882Z,5.20
2023-03-05T11:56:21.473Z,5.07
2023-03-05T11:59:11.456Z,5.33
2023-03-05T12:01:45.291Z,6.30
2023-03-05T12:04:12.172Z,6.17
2023-03-05T12:06:48.473Z,6.53
2023-03-05T12:09:28.743Z,5.90
2023-03-05T12:12:04.212Z,5.90
2023-03-05T12:14:44.069Z,5.80
2023-03-05T12:17:40.928Z,6.57
2023-03-05T12:20:18.400Z,6.13
2023-03-05T12:22:45.458Z,7.60
2023-03-05T12:25:35.395Z,7.37
2023-03-05T12:28:02.909Z,6.10
2023-03-05T12:30:35.097Z,7.47
2023-03-05T12:33:08.011Z,5.83
2023-03-05T12:35:37.360Z,6.97
2023-03-05T12:38:30.045Z,7.17
2023-03-05T12:41:25.841Z,6.70
2023-03-05T12:44:05.480Z,6.50
2023-03-05T12:46:51.028Z,6.27
2023-03-05T12:49:20.483Z,5.80
2023-03-05T12:51:48.411Z,5.93
2023-03-05T12:54:29.191Z,5.63
2023-03-05T12:56:58.166Z,6.50
2023-03-05T12:59:29.710Z,4.17
2023-03-05T13:02:02.976Z,3.73
2023-03-05T13:04:32.943Z,4.47
2023-03-05T13:07:05.684Z,4.23
2023-03-05T13:09:36.111Z,3.83
2023-03-05T13:12:04.927Z,4.67
2023-03-05T13:14:41.817Z,4.40
2023-03-05T13:17:52.477Z,3.83
2023-03-05T13:20:39.646Z,4.00
2023-03-05T13:23:18.575Z,3.70
2023-03-05T13:25:55.555Z,5.03
2023-03-05T13:28:21.895Z,4.43
2023-03-05T13:30:53.562Z,5.10
2023-03-05T13:33:27.973Z,4.23
2023-03-05T13:35:54.817Z,4.87
2023-03-05T13:38:38.645Z,4.73
2023-03-05T13:41:11.214Z,5.47
2023-03-05T13:43:48.594Z,3.60
2023-03-05T13:46:23.625Z,4.70
2023-03-05T13:48:50.030Z,3.10
2023-03-05T13:51:16.767Z,4.40
2023-03-05T13:53:43.771Z,5.07
2023-03-05T13:56:15.722Z,4.43
2023-03-05T13:58:56.383Z,5.13
2023-03-05T14:01:29.890Z,5.30
2023-03-05T14:04:04.119Z,4.83
2023-03-05T14:06:30.911Z,4.97
2023-03-05T14:09:22.522Z,5.30
2023-03-05T14:11:54.487Z,6.67
2023-03-05T14:14:23.118Z,5.47
2023-03-05T14:16:49.542Z,5.80
2023-03-05T14:19:42.177Z,5.47
2023-03-05T14:22:32.870Z,6.40
2023-03-05T14:24:59.367Z,6.93
2023-03-05T14:27:25.920Z,6.87
2023-03-05T14:29:52.584Z,6.80
2023-03-05T14:32:49.447Z,6.03
2023-03-05T14:35:35.226Z,6.60
2023-03-05T14:38:01.945Z,5.90
2023-03-05T14:40:33.995Z,5.70
2023-03-05T14:43:10.395Z,4.77
2023-03-05T14:45:39.178Z,5.30
2023-03-05T14:48:07.599Z,5.83
2023-03-05T14:50:51.523Z,5.30
2023-03-05T14:53:22.009Z,5.63
2023-03-05T14:55:51.254Z,4.67
2023-03-05T14:58:21.564Z,4.70
2023-03-05T15:00:50.977Z,4.77
2023-03-05T15:03:18.363Z,4.50
2023-03-05T15:05:47.246Z,4.30
2023-03-05T15:08:26.921Z,4.30
2023-03-05T15:10:53.791Z,4.67
2023-03-05T15:13:21.431Z,4.30
2023-03-05T15:15:49.117Z,5.10
2023-03-05T15:18:18.545Z,4.20
2023-03-05T15:20:45.464Z,4.97
2023-03-05T15:23:12.822Z,5.30
2023-03-05T15:25:39.857Z,6.00
2023-03-05T15:28:06.207Z,6.13
2023-03-05T15:30:39.607Z,5.50
2023-03-05T15:33:09.259Z,4.50
2023-03-05T15:35:35.789Z,3.87
2023-03-05T15:38:02.233Z,4.23
2023-03-05T15:40:28.897Z,4.33
2023-03-05T15:42:56.400Z,4.40
2023-03-05T15:45:23.402Z,4.07
2023-03-05T15:47:51.015Z,3.80
2023-03-05T15:50:18.089Z,4.43
2023-03-05T15:52:44.516Z,3.40
2023-03-05T15:55:11.867Z,4.00
2023-03-05T15:57:42.815Z,4.43
2023-03-05T16:00:10.465Z,4.10
2023-03-05T16:02:37.091Z,4.93
2023-03-05T16:05:04.120Z,4.43
2023-03-05T16:07:32.941Z,5.20
2023-03-05T16:09:59.771Z,4.60
2023-03-05T16:12:31.046Z,4.40
2023-03-05T16:14:57.487Z,4.60
2023-03-05T16:17:24.070Z,4.10
2023-03-05T16:19:54.934Z,4.60
2023-03-05T16:22:21.387Z,4.53
2023-03-05T16:24:47.770Z,4.27
2023-03-05T16:27:14.114Z,4.27
2023-03-05T16:29:40.483Z,4.90
2023-03-05T16:32:07.147Z,5.17
2023-03-05T16:34:34.337Z,5.67
2023-03-05T16:37:03.752Z,5.30
2023-03-05T16:39:30.351Z,5.03
2023-03-05T16:41:57.671Z,4.77
2023-03-05T16:44:24.070Z,4.40
2023-03-05T16:46:53.559Z,5.60
2023-03-05T16:49:20.939Z,5.07
2023-03-05T16:51:47.363Z,5.00
2023-03-05T16:54:13.946Z,5.37
2023-03-05T16:56:40.276Z,5.53
2023-03-05T16:59:06.659Z,5.73
2023-03-05T17:01:33.118Z,5.67
2023-03-05T17:04:00.160Z,5.90
2023-03-05T17:06:29.314Z,6.20
2023-03-05T17:08:56.242Z,5.67
2023-03-05T17:11:22.825Z,5.27
2023-03-05T17:13:49.339Z,6.33
2023-03-05T17:16:18.137Z,6.47
2023-03-05T17:18:45.058Z,5.93
2023-03-05T17:21:11.759Z,6.90
2023-03-05T17:23:38.886Z,6.87
2023-03-05T17:26:07.284Z,6.00
2023-03-05T17:28:33.723Z,6.20
2023-03-05T17:31:01.328Z,5.60
2023-03-05T17:33:28.835Z,5.13
2023-03-05T17:35:55.288Z,5.30
2023-03-05T17:38:21.783Z,5.87
2023-03-05T17:40:48.974Z,5.83
2023-03-05T17:43:15.423Z,5.90
2023-03-05T17:45:42.676Z,6.37
2023-03-05T17:48:10.322Z,6.03
2023-03-05T17:50:36.707Z,6.03
2023-03-05T17:53:03.621Z,6.47
2023-03-05T17:55:30.648Z,6.40
2023-03-05T17:57:58.470Z,6.43
2023-03-05T18:00:27.837Z,6.27
2023-03-05T18:02:54.880Z,6.97
2023-03-05T18:05:23.248Z,7.00
2023-03-05T18:07:50.434Z,7.67
2023-03-05T18:10:19.730Z,7.07
2023-03-05T18:12:46.938Z,8.17
2023-03-05T18:15:15.856Z,7.50
2023-03-05T18:17:42.896Z,7.63
2023-03-05T18:20:31.062Z,6.87
2023-03-05T18:22:58.901Z,7.47
2023-03-05T18:25:30.713Z,6.10
2023-03-05T18:28:02.265Z,6.67
2023-03-05T18:30:30.105Z,5.70
2023-03-05T18:32:56.745Z,5.70
2023-03-05T18:35:23.802Z,5.33
2023-03-05T18:37:50.438Z,6.20
2023-03-05T18:40:21.385Z,5.63
2023-03-05T18:42:48.038Z,5.33
2023-03-05T18:45:15.841Z,5.17
2023-03-05T18:47:43.273Z,4.90
2023-03-05T18:50:14.564Z,5.80
2023-03-05T18:52:42.199Z,6.60
2023-03-05T18:55:14.874Z,7.07
2023-03-05T18:57:41.228Z,6.87
2023-03-05T19:00:08.788Z,7.17
2023-03-05T19:02:35.110Z,7.10
2023-03-05T19:05:02.627Z,6.80
2023-03-05T19:07:29.736Z,8.07
2023-03-05T19:09:59.654Z,6.07
2023-03-05T19:12:34.939Z,5.80
2023-03-05T19:15:02.415Z,6.07
2023-03-05T19:17:30.647Z,6.50
2023-03-05T19:19:59.469Z,6.07
2023-03-05T19:22:27.246Z,5.80
2023-03-05T19:24:54.027Z,6.50
2023-03-05T19:27:20.468Z,6.23
2023-03-05T19:29:47.104Z,6.27
2023-03-05T19:32:17.288Z,7.13
2023-03-05T19:34:47.477Z,7.50
2023-03-05T19:37:14.409Z,7.37
2023-03-05T19:39:41.734Z,7.70
2023-03-05T19:42:08.246Z,7.00
2023-03-05T19:44:34.853Z,8.30
2023-03-05T19:47:01.277Z,7.37
2023-03-05T19:49:27.748Z,8.37
2023-03-05T19:51:54.142Z,7.30
2023-03-05T19:54:21.865Z,7.13
2023-03-05T19:56:49.155Z,7.90
2023-03-05T19:59:20.470Z,7.27
2023-03-05T20:01:48.234Z,7.97
2023-03-05T20:04:18.318Z,8.23
2023-03-05T20:06:44.957Z,7.27
2023-03-05T20:09:11.734Z,8.97
2023-03-05T20:11:38.651Z,13.13
2023-03-05T20:14:05.358Z,12.63
2023-03-05T20:16:35.077Z,12.57
2023-03-05T20:19:03.631Z,13.50
2023-03-05T20:21:33.778Z,13.70
2023-03-05T20:24:03.832Z,14.97
2023-03-05T20:26:32.742Z,14.80
2023-03-05T20:28:59.249Z,14.73
2023-03-05T20:31:26.832Z,13.93
2023-03-05T20:33:54.066Z,12.60
2023-03-05T20:36:20.495Z,15.00
2023-03-05T20:38:46.943Z,15.50
2023-03-05T20:41:16.451Z,16.47
2023-03-05T20:43:46.194Z,17.50
2023-03-05T20:46:20.129Z,16.53
2023-03-05T20:48:49.301Z,15.43
2023-03-05T20:51:19.065Z,17.10
2023-03-05T20:53:45.489Z,17.30
2023-03-05T20:56:11.959Z,18.43
2023-03-05T20:58:38.927Z,18.00
2023-03-05T21:01:05.726Z,16.97
2023-03-05T21:03:32.204Z,19.13
2023-03-05T21:05:58.658Z,16.47
2023-03-05T21:08:25.039Z,17.87
2023-03-05T21:10:51.596Z,17.53
2023-03-05T21:13:18.157Z,19.02
2023-03-05T21:15:44.628Z,17.60
2023-03-05T21:18:11.080Z,18.03
2023-03-05T21:20:37.484Z,17.67
2023-03-05T21:23:03.946Z,16.73
2023-03-05T21:25:32.206Z,16.67
2023-03-05T21:28:06.458Z,19.67
2023-03-05T21:30:35.784Z,17.77
2023-03-05T21:33:07.236Z,19.37
2023-03-05T21:35:34.768Z,16.53
2023-03-05T21:38:02.592Z,15.93
2023-03-05T21:40:29.370Z,16.63
2023-03-05T21:42:55.994Z,15.37
2023-03-05T21:45:25.350Z,15.53
2023-03-05T21:47:52.759Z,13.90
2023-03-05T21:50:23.740Z,16.20
2023-03-05T21:52:50.264Z,14.80
2023-03-05T21:55:19.815Z,13.33
2023-03-05T21:57:46.453Z,14.80
2023-03-05T22:00:13.445Z,13.93
2023-03-05T22:02:41.349Z,14.60
2023-03-05T22:05:12.524Z,15.27
2023-03-05T22:07:39.714Z,15.50
2023-03-05T22:10:06.871Z,15.87
2023-03-05T22:13:06.802Z,15.57
2023-03-05T22:15:33.795Z,16.27
2023-03-05T22:18:00.435Z,16.10
2023-03-05T22:20:26.829Z,16.07
2023-03-05T22:22:53.182Z,15.80
2023-03-05T22:25:19.668Z,15.77
2023-03-05T22:27:46.014Z,17.00
2023-03-05T22:30:13.019Z,16.90
2023-03-05T22:32:39.491Z,18.63
2023-03-05T22:35:07.579Z,17.40
2023-03-05T22:37:33.962Z,17.03
2023-03-05T22:40:00.404Z,15.97
2023-03-05T22:42:26.958Z,16.17
2023-03-05T22:44:57.676Z,16.53
2023-03-05T22:47:25.375Z,17.47
2023-03-05T22:49:51.821Z,17.73
2023-03-05T22:52:18.396Z,18.63
2023-03-05T22:54:44.846Z,17.00
2023-03-05T22:57:11.485Z,17.47
2023-03-05T22:59:37.826Z,17.53
2023-03-05T23:02:04.407Z,17.27
2023-03-05T23:04:59.989Z,18.77
2023-03-05T23:07:32.818Z,17.87
2023-03-05T23:10:06.527Z,16.87
2023-03-05T23:12:35.508Z,14.53
2023-03-05T23:15:04.771Z,15.63
2023-03-05T23:17:31.164Z,16.97
2023-03-05T23:19:57.543Z,16.60
2023-03-05T23:22:23.889Z,16.03
2023-03-05T23:24:50.263Z,16.87
2023-03-05T23:27:20.237Z,18.23
2023-03-05T23:30:21.950Z,16.93
2023-03-05T23:32:53.122Z,16.00
2023-03-05T23:35:29.325Z,17.60
2023-03-05T23:37:57.588Z,16.23
2023-03-05T23:40:30.548Z,17.40
2023-03-05T23:42:57.496Z,18.40
2023-03-05T23:45:24.868Z,17.33
2023-03-05T23:47:52.903Z,17.97
2023-03-05T23:50:25.631Z,18.23
2023-03-05T23:52:54.255Z,18.40
2023-03-05T23:55:24.330Z,18.30
2023-03-05T23:57:51.394Z,18.40
